sensor_id;sensor_type;location;lat;lon;timestamp;pressure;altitude;pressure_sealevel;temperature
64600;BMP280;6553;48.412;9.514;2023-01-01T00:01:15;71608.28;;;19.32
64600;BMP280;6553;48.412;9.514;2023-01-01T00:03:42;71607.78;;;19.32
64600;BMP280;6553;48.412;9.514;2023-01-01T00:06:12;71605.66;;;19.30
64600;BMP280;6553;48.412;9.514;2023-01-01T00:08:39;71607.78;;;19.32
64600;BMP280;6553;48.412;9.514;2023-01-01T00:11:07;71603.44;;;19.30
64600;BMP280;6553;48.412;9.514;2023-01-01T00:13:37;71605.66;;;19.30
64600;BMP280;6553;48.412;9.514;2023-01-01T00:16:07;71602.88;;;19.30
64600;BMP280;6553;48.412;9.514;2023-01-01T00:18:34;71607.78;;;19.32
64600;BMP280;6553;48.412;9.514;2023-01-01T00:21:10;71602.75;;;19.32
64600;BMP280;6553;48.412;9.514;2023-01-01T00:23:36;71601.19;;;19.31
64600;BMP280;6553;48.412;9.514;2023-01-01T00:26:10;71607.78;;;19.32
64600;BMP280;6553;48.412;9.514;2023-01-01T00:28:36;71600.66;;;19.30
64600;BMP280;6553;48.412;9.514;2023-01-01T00:31:11;71602.88;;;19.30
64600;BMP280;6553;48.412;9.514;2023-01-01T00:33:36;71602.88;;;19.30
64600;BMP280;6553;48.412;9.514;2023-01-01T00:36:14;71607.25;;;19.31
64600;BMP280;6553;48.412;9.514;2023-01-01T00:38:43;71603.44;;;19.30
64600;BMP280;6553;48.412;9.514;2023-01-01T00:41:12;71606.72;;;19.31
64600;BMP280;6553;48.412;9.514;2023-01-01T00:43:38;71606.31;;;19.28
64600;BMP280;6553;48.412;9.514;2023-01-01T00:46:04;71606.72;;;19.31
64600;BMP280;6553;48.412;9.514;2023-01-01T00:48:30;71605.13;;;19.29
64600;BMP280;6553;48.412;9.514;2023-01-01T00:50:57;71603.44;;;19.30
64600;BMP280;6553;48.412;9.514;2023-01-01T00:53:22;71605.13;;;19.29
64600;BMP280;6553;48.412;9.514;2023-01-01T00:55:50;71603.44;;;19.30
64600;BMP280;6553;48.412;9.514;2023-01-01T00:58:18;71604.06;;;19.28
64600;BMP280;6553;48.412;9.514;2023-01-01T01:00:44;71600.25;;;19.27
64600;BMP280;6553;48.412;9.514;2023-01-01T01:03:12;71610.66;;;19.29
64600;BMP280;6553;48.412;9.514;2023-01-01T01:08:31;71602.88;;;19.30
64600;BMP280;6553;48.412;9.514;2023-01-01T01:11:11;71600.75;;;19.28
64600;BMP280;6553;48.412;9.514;2023-01-01T01:13:38;71605.13;;;19.29
64600;BMP280;6553;48.412;9.514;2023-01-01T01:16:11;71600.13;;;19.30
64600;BMP280;6553;48.412;9.514;2023-01-01T01:18:37;71598.50;;;19.28
64600;BMP280;6553;48.412;9.514;2023-01-01T01:21:04;71599.72;;;19.27
64600;BMP280;6553;48.412;9.514;2023-01-01T01:23:31;71598.00;;;19.28
64600;BMP280;6553;48.412;9.514;2023-01-01T01:26:13;71603.03;;;19.27
64600;BMP280;6553;48.412;9.514;2023-01-01T01:28:40;71599.19;;;19.26
64600;BMP280;6553;48.412;9.514;2023-01-01T01:31:06;71602.47;;;19.27
64600;BMP280;6553;48.412;9.514;2023-01-01T01:33:32;71602.47;;;19.27
64600;BMP280;6553;48.412;9.514;2023-01-01T01:35:58;71599.72;;;19.27
64600;BMP280;6553;48.412;9.514;2023-01-01T01:38:24;71604.59;;;19.29
64600;BMP280;6553;48.412;9.514;2023-01-01T01:40:50;71596.94;;;19.27
64600;BMP280;6553;48.412;9.514;2023-01-01T01:46:05;71602.47;;;19.27
64600;BMP280;6553;48.412;9.514;2023-01-01T01:48:38;71597.47;;;19.27
64600;BMP280;6553;48.412;9.514;2023-01-01T01:51:06;71599.72;;;19.27
64600;BMP280;6553;48.412;9.514;2023-01-01T01:53:36;71602.47;;;19.27
64600;BMP280;6553;48.412;9.514;2023-01-01T01:56:09;71598.66;;;19.26
64600;BMP280;6553;48.412;9.514;2023-01-01T01:58:36;71603.53;;;19.28
64600;BMP280;6553;48.412;9.514;2023-01-01T02:01:02;71600.75;;;19.28
64600;BMP280;6553;48.412;9.514;2023-01-01T02:03:54;71601.94;;;19.26
64600;BMP280;6553;48.412;9.514;2023-01-01T02:06:23;71599.19;;;19.26
64600;BMP280;6553;48.412;9.514;2023-01-01T02:08:49;71598.66;;;19.26
64600;BMP280;6553;48.412;9.514;2023-01-01T02:11:16;71599.72;;;19.27
64600;BMP280;6553;48.412;9.514;2023-01-01T02:13:42;71601.41;;;19.26
64600;BMP280;6553;48.412;9.514;2023-01-01T02:19:17;71598.66;;;19.26
64600;BMP280;6553;48.412;9.514;2023-01-01T02:22:32;71601.28;;;19.28
64600;BMP280;6553;48.412;9.514;2023-01-01T02:26:00;71595.34;;;19.25
64600;BMP280;6553;48.412;9.514;2023-01-01T02:31:28;71596.94;;;19.27
64600;BMP280;6553;48.412;9.514;2023-01-01T02:34:01;71595.34;;;19.25
64600;BMP280;6553;48.412;9.514;2023-01-01T02:36:30;71599.19;;;19.26
64600;BMP280;6553;48.412;9.514;2023-01-01T02:39:00;71596.41;;;19.26
64600;BMP280;6553;48.412;9.514;2023-01-01T02:41:37;71599.19;;;19.26
64600;BMP280;6553;48.412;9.514;2023-01-01T02:44:04;71601.94;;;19.26
64600;BMP280;6553;48.412;9.514;2023-01-01T02:46:33;71596.41;;;19.26
64600;BMP280;6553;48.412;9.514;2023-01-01T02:49:00;71600.88;;;19.25
64600;BMP280;6553;48.412;9.514;2023-01-01T02:52:00;71605.88;;;19.25
64600;BMP280;6553;48.412;9.514;2023-01-01T02:54:46;71601.41;;;19.26
64600;BMP280;6553;48.412;9.514;2023-01-01T02:57:35;71600.88;;;19.25
64600;BMP280;6553;48.412;9.514;2023-01-01T03:00:10;71599.19;;;19.26
64600;BMP280;6553;48.412;9.514;2023-01-01T03:03:19;71603.63;;;19.25
64600;BMP280;6553;48.412;9.514;2023-01-01T03:06:25;71601.41;;;19.26
64600;BMP280;6553;48.412;9.514;2023-01-01T03:09:25;71599.19;;;19.26
64600;BMP280;6553;48.412;9.514;2023-01-01T03:12:10;71598.09;;;19.25
64600;BMP280;6553;48.412;9.514;2023-01-01T03:15:01;71597.06;;;19.24
64600;BMP280;6553;48.412;9.514;2023-01-01T03:17:44;71596.94;;;19.27
64600;BMP280;6553;48.412;9.514;2023-01-01T03:20:20;71598.09;;;19.25
64600;BMP280;6553;48.412;9.514;2023-01-01T03:22:49;71596.53;;;19.24
64600;BMP280;6553;48.412;9.514;2023-01-01T03:25:26;71596.53;;;19.24
64600;BMP280;6553;48.412;9.514;2023-01-01T03:27:58;71599.28;;;19.24
64600;BMP280;6553;48.412;9.514;2023-01-01T03:30:27;71597.56;;;19.25
64600;BMP280;6553;48.412;9.514;2023-01-01T03:33:06;71594.81;;;19.25
64600;BMP280;6553;48.412;9.514;2023-01-01T03:35:44;71599.81;;;19.24
64600;BMP280;6553;48.412;9.514;2023-01-01T03:38:24;71599.28;;;19.24
64600;BMP280;6553;48.412;9.514;2023-01-01T03:40:59;71593.75;;;19.24
64600;BMP280;6553;48.412;9.514;2023-01-01T03:44:45;71599.81;;;19.24
64600;BMP280;6553;48.412;9.514;2023-01-01T03:46:40;71597.69;;;19.22
64600;BMP280;6553;48.412;9.514;2023-01-01T03:49:09;71596.53;;;19.24
64600;BMP280;6553;48.412;9.514;2023-01-01T03:52:08;71599.81;;;19.24
64600;BMP280;6553;48.412;9.514;2023-01-01T03:57:56;71598.75;;;19.23
64600;BMP280;6553;48.412;9.514;2023-01-01T04:00:37;71596.53;;;19.24
64600;BMP280;6553;48.412;9.514;2023-01-01T04:03:26;71592.69;;;19.23
64600;BMP280;6553;48.412;9.514;2023-01-01T04:05:53;71598.22;;;19.23
64600;BMP280;6553;48.412;9.514;2023-01-01T04:08:19;71594.41;;;19.22
64600;BMP280;6553;48.412;9.514;2023-01-01T04:10:50;71582.16;;;19.23
64600;BMP280;6553;48.412;9.514;2023-01-01T04:13:18;71597.16;;;19.22
64600;BMP280;6553;48.412;9.514;2023-01-01T04:15:43;71594.94;;;19.22
64600;BMP280;6553;48.412;9.514;2023-01-01T04:18:09;71594.94;;;19.22
64600;BMP280;6553;48.412;9.514;2023-01-01T04:20:35;71588.97;;;19.19
64600;BMP280;6553;48.412;9.514;2023-01-01T04:23:01;71591.63;;;19.22
64600;BMP280;6553;48.412;9.514;2023-01-01T04:25:28;71598.22;;;19.23
64600;BMP280;6553;48.412;9.514;2023-01-01T04:27:55;71591.09;;;19.21
64600;BMP280;6553;48.412;9.514;2023-01-01T04:30:23;71597.81;;;19.20
64600;BMP280;6553;48.412;9.514;2023-01-01T04:32:49;71592.28;;;19.20
64600;BMP280;6553;48.412;9.514;2023-01-01T04:35:15;71597.81;;;19.20
64600;BMP280;6553;48.412;9.514;2023-01-01T04:37:43;71588.97;;;19.19
64600;BMP280;6553;48.412;9.514;2023-01-01T04:40:12;71591.72;;;19.19
64600;BMP280;6553;48.412;9.514;2023-01-01T04:42:38;71596.09;;;19.21
64600;BMP280;6553;48.412;9.514;2023-01-01T04:45:05;71594.41;;;19.22
64600;BMP280;6553;48.412;9.514;2023-01-01T04:47:31;71587.91;;;19.18
64600;BMP280;6553;48.412;9.514;2023-01-01T04:49:56;71591.19;;;19.19
64600;BMP280;6553;48.412;9.514;2023-01-01T04:52:22;71589.50;;;19.20
64600;BMP280;6553;48.412;9.514;2023-01-01T04:54:48;71587.91;;;19.18
64600;BMP280;6553;48.412;9.514;2023-01-01T04:57:14;71591.84;;;19.17
64600;BMP280;6553;48.412;9.514;2023-01-01T04:59:40;71588.44;;;19.19
64600;BMP280;6553;48.412;9.514;2023-01-01T05:02:06;71594.41;;;19.22
64600;BMP280;6553;48.412;9.514;2023-01-01T05:04:32;71594.50;;;19.19
64600;BMP280;6553;48.412;9.514;2023-01-01T05:06:57;71588.44;;;19.19
64600;BMP280;6553;48.412;9.514;2023-01-01T05:09:23;71590.69;;;19.18
64600;BMP280;6553;48.412;9.514;2023-01-01T05:11:49;71592.81;;;19.20
64600;BMP280;6553;48.412;9.514;2023-01-01T05:14:15;71596.22;;;19.18
64600;BMP280;6553;48.412;9.514;2023-01-01T05:16:40;71590.69;;;19.18
64600;BMP280;6553;48.412;9.514;2023-01-01T05:19:07;71593.56;;;19.16
64600;BMP280;6553;48.412;9.514;2023-01-01T05:21:38;71591.19;;;19.19
64600;BMP280;6553;48.412;9.514;2023-01-01T05:24:08;71586.31;;;19.17
64600;BMP280;6553;48.412;9.514;2023-01-01T05:26:38;71587.91;;;19.18
64600;BMP280;6553;48.412;9.514;2023-01-01T05:29:05;71586.31;;;19.17
64600;BMP280;6553;48.412;9.514;2023-01-01T05:31:34;71586.88;;;19.17
64600;BMP280;6553;48.412;9.514;2023-01-01T05:34:02;71589.63;;;19.17
64600;BMP280;6553;48.412;9.514;2023-01-01T05:36:33;71596.31;;;19.16
64600;BMP280;6553;48.412;9.514;2023-01-01T05:39:04;71593.44;;;19.18
64600;BMP280;6553;48.412;9.514;2023-01-01T05:41:30;71586.88;;;19.17
64600;BMP280;6553;48.412;9.514;2023-01-01T05:44:02;71588.56;;;19.16
64600;BMP280;6553;48.412;9.514;2023-01-01T05:46:27;71593.03;;;19.15
64600;BMP280;6553;48.412;9.514;2023-01-01T05:48:53;71592.41;;;19.17
64600;BMP280;6553;48.412;9.514;2023-01-01T05:51:26;71593.97;;;19.19
64600;BMP280;6553;48.412;9.514;2023-01-01T05:53:56;71592.41;;;19.17
64600;BMP280;6553;48.412;9.514;2023-01-01T05:56:22;71587.47;;;19.15
64600;BMP280;6553;48.412;9.514;2023-01-01T05:58:48;71588.69;;;19.14
64600;BMP280;6553;48.412;9.514;2023-01-01T06:01:22;71593.03;;;19.15
64600;BMP280;6553;48.412;9.514;2023-01-01T06:03:49;71590.78;;;19.16
64600;BMP280;6553;48.412;9.514;2023-01-01T06:06:19;71589.72;;;19.15
64600;BMP280;6553;48.412;9.514;2023-01-01T06:08:57;71590.25;;;19.15
64600;BMP280;6553;48.412;9.514;2023-01-01T06:11:24;71585.25;;;19.16
64600;BMP280;6553;48.412;9.514;2023-01-01T06:13:55;71589.19;;;19.14
64600;BMP280;6553;48.412;9.514;2023-01-01T06:16:22;71582.06;;;19.13
64600;BMP280;6553;48.412;9.514;2023-01-01T06:18:48;71582.63;;;19.13
64600;BMP280;6553;48.412;9.514;2023-01-01T06:21:21;71592.41;;;19.17
64600;BMP280;6553;48.412;9.514;2023-01-01T06:23:47;71583.16;;;19.14
64600;BMP280;6553;48.412;9.514;2023-01-01T06:26:22;71588.69;;;19.14
64600;BMP280;6553;48.412;9.514;2023-01-01T06:28:49;71589.09;;;19.17
64600;BMP280;6553;48.412;9.514;2023-01-01T06:31:18;71589.19;;;19.14
64600;BMP280;6553;48.412;9.514;2023-01-01T06:33:45;71593.56;;;19.16
64600;BMP280;6553;48.412;9.514;2023-01-01T06:36:14;71587.06;;;19.12
64600;BMP280;6553;48.412;9.514;2023-01-01T06:38:43;71587.47;;;19.15
64600;BMP280;6553;48.412;9.514;2023-01-01T06:41:17;71588.69;;;19.14
64600;BMP280;6553;48.412;9.514;2023-01-01T06:43:44;71584.31;;;19.12
64600;BMP280;6553;48.412;9.514;2023-01-01T06:46:19;71585.91;;;19.14
64600;BMP280;6553;48.412;9.514;2023-01-01T06:48:48;71584.84;;;19.13
64600;BMP280;6553;48.412;9.514;2023-01-01T06:51:18;71586.53;;;19.12
64600;BMP280;6553;48.412;9.514;2023-01-01T06:53:45;71583.16;;;19.14
64600;BMP280;6553;48.412;9.514;2023-01-01T06:56:12;71583.16;;;19.14
64600;BMP280;6553;48.412;9.514;2023-01-01T06:58:38;71585.91;;;19.14
64600;BMP280;6553;48.412;9.514;2023-01-01T07:01:16;71581.00;;;19.12
64600;BMP280;6553;48.412;9.514;2023-01-01T07:03:43;71585.91;;;19.14
64600;BMP280;6553;48.412;9.514;2023-01-01T07:06:10;71587.06;;;19.12
64600;BMP280;6553;48.412;9.514;2023-01-01T07:08:36;71583.16;;;19.14
64600;BMP280;6553;48.412;9.514;2023-01-01T07:11:02;71582.63;;;19.13
64600;BMP280;6553;48.412;9.514;2023-01-01T07:13:29;71583.78;;;19.12
64600;BMP280;6553;48.412;9.514;2023-01-01T07:15:55;71585.38;;;19.13
64600;BMP280;6553;48.412;9.514;2023-01-01T07:18:23;71582.63;;;19.13
64600;BMP280;6553;48.412;9.514;2023-01-01T07:20:55;71591.44;;;19.14
64600;BMP280;6553;48.412;9.514;2023-01-01T07:23:23;71583.66;;;19.14
64600;BMP280;6553;48.412;9.514;2023-01-01T07:25:50;71581.53;;;19.12
64600;BMP280;6553;48.412;9.514;2023-01-01T07:28:17;71582.06;;;19.13
64600;BMP280;6553;48.412;9.514;2023-01-01T07:30:43;71583.25;;;19.11
64600;BMP280;6553;48.412;9.514;2023-01-01T07:33:17;71587.59;;;19.13
64600;BMP280;6553;48.412;9.514;2023-01-01T07:35:44;71580.47;;;19.11
64600;BMP280;6553;48.412;9.514;2023-01-01T07:38:10;71585.38;;;19.13
64600;BMP280;6553;48.412;9.514;2023-01-01T07:40:36;71586.53;;;19.12
64600;BMP280;6553;48.412;9.514;2023-01-01T07:43:02;71594.22;;;19.14
64600;BMP280;6553;48.412;9.514;2023-01-01T07:45:28;71583.16;;;19.14
64600;BMP280;6553;48.412;9.514;2023-01-01T07:47:56;71589.19;;;19.14
64600;BMP280;6553;48.412;9.514;2023-01-01T07:50:29;71584.72;;;19.15
64600;BMP280;6553;48.412;9.514;2023-01-01T07:52:55;71584.72;;;19.15
64600;BMP280;6553;48.412;9.514;2023-01-01T07:55:21;71585.47;;;19.11
64600;BMP280;6553;48.412;9.514;2023-01-01T07:57:48;71584.72;;;19.15
64600;BMP280;6553;48.412;9.514;2023-01-01T08:00:19;71581.53;;;19.12
64600;BMP280;6553;48.412;9.514;2023-01-01T08:02:45;71583.66;;;19.14
64600;BMP280;6553;48.412;9.514;2023-01-01T08:05:11;71588.69;;;19.14
64600;BMP280;6553;48.412;9.514;2023-01-01T08:07:37;71586.41;;;19.14
64600;BMP280;6553;48.412;9.514;2023-01-01T08:10:07;71584.72;;;19.15
64600;BMP280;6553;48.412;9.514;2023-01-01T08:12:33;71590.25;;;19.15
64600;BMP280;6553;48.412;9.514;2023-01-01T08:14:58;71591.31;;;19.16
64600;BMP280;6553;48.412;9.514;2023-01-01T08:17:24;71589.72;;;19.15
64600;BMP280;6553;48.412;9.514;2023-01-01T08:19:50;71586.41;;;19.14
64600;BMP280;6553;48.412;9.514;2023-01-01T08:22:17;71590.25;;;19.15
64600;BMP280;6553;48.412;9.514;2023-01-01T08:24:43;71584.19;;;19.15
64600;BMP280;6553;48.412;9.514;2023-01-01T08:27:15;71589.72;;;19.15
64600;BMP280;6553;48.412;9.514;2023-01-01T08:29:43;71586.41;;;19.14
64600;BMP280;6553;48.412;9.514;2023-01-01T08:32:10;71585.78;;;19.16
64600;BMP280;6553;48.412;9.514;2023-01-01T08:34:36;71593.56;;;19.16
64600;BMP280;6553;48.412;9.514;2023-01-01T08:37:02;71588.56;;;19.16
64600;BMP280;6553;48.412;9.514;2023-01-01T08:39:28;71594.09;;;19.16
64600;BMP280;6553;48.412;9.514;2023-01-01T08:41:54;71585.78;;;19.16
64600;BMP280;6553;48.412;9.514;2023-01-01T08:44:20;71583.16;;;19.14
64600;BMP280;6553;48.412;9.514;2023-01-01T08:46:45;71590.78;;;19.16
64600;BMP280;6553;48.412;9.514;2023-01-01T08:49:11;71589.19;;;19.14
64600;BMP280;6553;48.412;9.514;2023-01-01T08:51:37;71588.03;;;19.16
64600;BMP280;6553;48.412;9.514;2023-01-01T08:54:05;71590.16;;;19.18
64600;BMP280;6553;48.412;9.514;2023-01-01T08:56:30;71590.78;;;19.16
64600;BMP280;6553;48.412;9.514;2023-01-01T08:58:56;71588.03;;;19.16
64600;BMP280;6553;48.412;9.514;2023-01-01T09:01:22;71588.69;;;19.14
64600;BMP280;6553;48.412;9.514;2023-01-01T09:03:50;71584.19;;;19.15
64600;BMP280;6553;48.412;9.514;2023-01-01T09:06:16;71588.69;;;19.14
64600;BMP280;6553;48.412;9.514;2023-01-01T09:08:42;71587.59;;;19.13
64600;BMP280;6553;48.412;9.514;2023-01-01T09:11:26;71587.91;;;19.18
64600;BMP280;6553;48.412;9.514;2023-01-01T09:13:53;71590.78;;;19.16
64600;BMP280;6553;48.412;9.514;2023-01-01T09:16:20;71591.19;;;19.19
64600;BMP280;6553;48.412;9.514;2023-01-01T09:18:46;71591.19;;;19.19
64600;BMP280;6553;48.412;9.514;2023-01-01T09:21:11;71588.44;;;19.19
64600;BMP280;6553;48.412;9.514;2023-01-01T09:23:37;71592.28;;;19.20
64600;BMP280;6553;48.412;9.514;2023-01-01T09:26:06;71593.97;;;19.19
64600;BMP280;6553;48.412;9.514;2023-01-01T09:28:34;71591.72;;;19.19
64600;BMP280;6553;48.412;9.514;2023-01-01T09:30:59;71582.81;;;19.08
64600;BMP280;6553;48.412;9.514;2023-01-01T09:33:27;71593.97;;;19.19
64600;BMP280;6553;48.412;9.514;2023-01-01T09:35:52;71592.28;;;19.20
64600;BMP280;6553;48.412;9.514;2023-01-01T09:38:18;71588.44;;;19.19
64600;BMP280;6553;48.412;9.514;2023-01-01T09:41:06;71588.97;;;19.19
64600;BMP280;6553;48.412;9.514;2023-01-01T09:44:05;71596.63;;;19.21
64600;BMP280;6553;48.412;9.514;2023-01-01T09:46:34;71595.03;;;19.20
64600;BMP280;6553;48.412;9.514;2023-01-01T09:49:34;71594.50;;;19.19
64600;BMP280;6553;48.412;9.514;2023-01-01T09:52:03;71596.63;;;19.21
64600;BMP280;6553;48.412;9.514;2023-01-01T09:54:47;71602.16;;;19.21
64600;BMP280;6553;48.412;9.514;2023-01-01T09:57:16;71588.44;;;19.19
64600;BMP280;6553;48.412;9.514;2023-01-01T09:59:42;71593.34;;;19.21
64600;BMP280;6553;48.412;9.514;2023-01-01T10:08:30;71593.75;;;19.24
64600;BMP280;6553;48.412;9.514;2023-01-01T10:11:13;71596.63;;;19.21
64600;BMP280;6553;48.412;9.514;2023-01-01T10:13:44;71597.06;;;19.24
64600;BMP280;6553;48.412;9.514;2023-01-01T10:16:41;71596.09;;;19.21
64600;BMP280;6553;48.412;9.514;2023-01-01T10:19:32;71592.16;;;19.22
64600;BMP280;6553;48.412;9.514;2023-01-01T10:22:09;71597.16;;;19.22
64600;BMP280;6553;48.412;9.514;2023-01-01T10:24:45;71594.41;;;19.22
64600;BMP280;6553;48.412;9.514;2023-01-01T10:29:56;71594.28;;;19.24
64600;BMP280;6553;48.412;9.514;2023-01-01T10:32:31;71593.22;;;19.23
64600;BMP280;6553;48.412;9.514;2023-01-01T10:34:59;71597.06;;;19.24
64600;BMP280;6553;48.412;9.514;2023-01-01T10:37:33;71595.97;;;19.23
64600;BMP280;6553;48.412;9.514;2023-01-01T10:40:27;71592.69;;;19.23
64600;BMP280;6553;48.412;9.514;2023-01-01T10:42:59;71600.88;;;19.25
64600;BMP280;6553;48.412;9.514;2023-01-01T10:45:46;71601.41;;;19.26
64600;BMP280;6553;48.412;9.514;2023-01-01T10:48:22;71597.56;;;19.25
64600;BMP280;6553;48.412;9.514;2023-01-01T10:51:00;71601.94;;;19.26
64600;BMP280;6553;48.412;9.514;2023-01-01T10:53:50;71598.22;;;19.23
64600;BMP280;6553;48.412;9.514;2023-01-01T10:56:22;71596.41;;;19.26
64600;BMP280;6553;48.412;9.514;2023-01-01T10:58:56;71597.56;;;19.25
64600;BMP280;6553;48.412;9.514;2023-01-01T11:01:31;71601.41;;;19.26
64600;BMP280;6553;48.412;9.514;2023-01-01T11:04:01;71597.47;;;19.27
64600;BMP280;6553;48.412;9.514;2023-01-01T11:06:57;71600.34;;;19.25
64600;BMP280;6553;48.412;9.514;2023-01-01T11:09:29;71597.06;;;19.24
64600;BMP280;6553;48.412;9.514;2023-01-01T11:12:07;71600.34;;;19.25
64600;BMP280;6553;48.412;9.514;2023-01-01T11:14:53;71597.06;;;19.24
64600;BMP280;6553;48.412;9.514;2023-01-01T11:17:33;71602.47;;;19.27
64600;BMP280;6553;48.412;9.514;2023-01-01T11:20:01;71599.19;;;19.26
64600;BMP280;6553;48.412;9.514;2023-01-01T11:22:47;71598.00;;;19.28
64600;BMP280;6553;48.412;9.514;2023-01-01T11:25:28;71605.78;;;19.27
64600;BMP280;6553;48.412;9.514;2023-01-01T11:28:17;71598.00;;;19.28
64600;BMP280;6553;48.412;9.514;2023-01-01T11:31:01;71600.88;;;19.25
64600;BMP280;6553;48.412;9.514;2023-01-01T11:33:33;71604.06;;;19.28
64600;BMP280;6553;48.412;9.514;2023-01-01T11:36:01;71604.59;;;19.29
64600;BMP280;6553;48.412;9.514;2023-01-01T11:38:27;71603.53;;;19.28
64600;BMP280;6553;48.412;9.514;2023-01-01T11:40:55;71598.50;;;19.28
64600;BMP280;6553;48.412;9.514;2023-01-01T11:43:26;71603.53;;;19.28
64600;BMP280;6553;48.412;9.514;2023-01-01T11:45:56;71604.06;;;19.28
64600;BMP280;6553;48.412;9.514;2023-01-01T11:48:29;71603.53;;;19.28
64600;BMP280;6553;48.412;9.514;2023-01-01T11:51:08;71610.66;;;19.29
64600;BMP280;6553;48.412;9.514;2023-01-01T11:53:41;71600.13;;;19.30
64600;BMP280;6553;48.412;9.514;2023-01-01T11:56:22;71605.13;;;19.29
64600;BMP280;6553;48.412;9.514;2023-01-01T11:58:56;71601.81;;;19.29
64600;BMP280;6553;48.412;9.514;2023-01-01T12:01:49;71601.19;;;19.31
64600;BMP280;6553;48.412;9.514;2023-01-01T12:04:31;71601.28;;;19.28
64600;BMP280;6553;48.412;9.514;2023-01-01T12:07:12;71598.00;;;19.28
64600;BMP280;6553;48.412;9.514;2023-01-01T12:10:07;71606.19;;;19.30
64600;BMP280;6553;48.412;9.514;2023-01-01T12:12:49;71608.44;;;19.30
64600;BMP280;6553;48.412;9.514;2023-01-01T12:15:34;71604.59;;;19.29
64600;BMP280;6553;48.412;9.514;2023-01-01T12:18:27;71603.53;;;19.28
64600;BMP280;6553;48.412;9.514;2023-01-01T12:23:35;71605.78;;;19.27
64600;BMP280;6553;48.412;9.514;2023-01-01T12:37:38;71601.72;;;19.31
64600;BMP280;6553;48.412;9.514;2023-01-01T12:40:41;71602.25;;;19.32
64600;BMP280;6553;48.412;9.514;2023-01-01T12:43:44;71601.19;;;19.31
64600;BMP280;6553;48.412;9.514;2023-01-01T12:55:56;71608.28;;;19.32
64600;BMP280;6553;48.412;9.514;2023-01-01T12:58:55;71600.66;;;19.30
64600;BMP280;6553;48.412;9.514;2023-01-01T13:01:26;71606.72;;;19.31
64600;BMP280;6553;48.412;9.514;2023-01-01T13:04:06;71604.50;;;19.31
64600;BMP280;6553;48.412;9.514;2023-01-01T13:07:02;71606.06;;;19.33
64600;BMP280;6553;48.412;9.514;2023-01-01T13:09:38;71605.00;;;19.32
64600;BMP280;6553;48.412;9.514;2023-01-01T13:12:08;71603.84;;;19.33
64600;BMP280;6553;48.412;9.514;2023-01-01T13:14:47;71605.66;;;19.30
64600;BMP280;6553;48.412;9.514;2023-01-01T13:17:25;71608.84;;;19.33
64600;BMP280;6553;48.412;9.514;2023-01-01T13:20:15;71603.84;;;19.33
64600;BMP280;6553;48.412;9.514;2023-01-01T13:22:47;71607.78;;;19.32
64600;BMP280;6553;48.412;9.514;2023-01-01T13:38:56;71609.91;;;19.34
64600;BMP280;6553;48.412;9.514;2023-01-01T13:41:28;71607.13;;;19.34
64600;BMP280;6553;48.412;9.514;2023-01-01T13:50:13;71607.25;;;19.31
64600;BMP280;6553;48.412;9.514;2023-01-01T13:53:36;71606.06;;;19.33
64600;BMP280;6553;48.412;9.514;2023-01-01T14:02:24;71608.84;;;19.33
64600;BMP280;6553;48.412;9.514;2023-01-01T14:05:01;71609.38;;;19.33
64600;BMP280;6553;48.412;9.514;2023-01-01T14:07:50;71609.38;;;19.33
64600;BMP280;6553;48.412;9.514;2023-01-01T14:13:00;71616.38;;;19.37
64600;BMP280;6553;48.412;9.514;2023-01-01T14:15:44;71613.22;;;19.34
64600;BMP280;6553;48.412;9.514;2023-01-01T14:18:16;71612.66;;;19.34
64600;BMP280;6553;48.412;9.514;2023-01-01T14:20:51;71606.59;;;19.33
64600;BMP280;6553;48.412;9.514;2023-01-01T14:23:39;71607.25;;;19.31
64600;BMP280;6553;48.412;9.514;2023-01-01T14:26:11;71604.91;;;19.34
64600;BMP280;6553;48.412;9.514;2023-01-01T14:28:39;71608.84;;;19.33
64600;BMP280;6553;48.412;9.514;2023-01-01T14:31:18;71602.75;;;19.32
64600;BMP280;6553;48.412;9.514;2023-01-01T14:33:45;71605.13;;;19.29
64600;BMP280;6553;48.412;9.514;2023-01-01T14:38:53;71610.97;;;19.35
64600;BMP280;6553;48.412;9.514;2023-01-01T14:41:31;71603.84;;;19.33
64600;BMP280;6553;48.412;9.514;2023-01-01T14:44:10;71608.84;;;19.33
64600;BMP280;6553;48.412;9.514;2023-01-01T14:46:46;71602.75;;;19.32
64600;BMP280;6553;48.412;9.514;2023-01-01T14:49:32;71606.72;;;19.31
64600;BMP280;6553;48.412;9.514;2023-01-01T14:52:08;71608.84;;;19.33
64600;BMP280;6553;48.412;9.514;2023-01-01T14:54:41;71603.31;;;19.33
64600;BMP280;6553;48.412;9.514;2023-01-01T14:57:19;71609.38;;;19.33
64600;BMP280;6553;48.412;9.514;2023-01-01T14:59:49;71613.50;;;19.40
64600;BMP280;6553;48.412;9.514;2023-01-01T15:02:29;71615.53;;;19.44
64600;BMP280;6553;48.412;9.514;2023-01-01T15:05:13;71617.09;;;19.46
64600;BMP280;6553;48.412;9.514;2023-01-01T15:07:39;71619.25;;;19.48
64600;BMP280;6553;48.412;9.514;2023-01-01T15:10:11;71620.41;;;19.46
64600;BMP280;6553;48.412;9.514;2023-01-01T15:12:36;71623.72;;;19.47
64600;BMP280;6553;48.412;9.514;2023-01-01T15:15:04;71619.25;;;19.48
64600;BMP280;6553;48.412;9.514;2023-01-01T15:17:45;71620.94;;;19.47
64600;BMP280;6553;48.412;9.514;2023-01-01T15:20:20;71625.31;;;19.48
64600;BMP280;6553;48.412;9.514;2023-01-01T15:22:46;71625.84;;;19.49
64600;BMP280;6553;48.412;9.514;2023-01-01T15:25:15;71622.63;;;19.46
64600;BMP280;6553;48.412;9.514;2023-01-01T15:27:47;71618.72;;;19.47
64600;BMP280;6553;48.412;9.514;2023-01-01T15:30:31;71627.00;;;19.47
64600;BMP280;6553;48.412;9.514;2023-01-01T15:33:15;71631.47;;;19.46
64600;BMP280;6553;48.412;9.514;2023-01-01T15:35:47;71618.84;;;19.45
64600;BMP280;6553;48.412;9.514;2023-01-01T15:38:28;71621.47;;;19.47
64600;BMP280;6553;48.412;9.514;2023-01-01T15:41:42;71622.09;;;19.45
64600;BMP280;6553;48.412;9.514;2023-01-01T15:44:28;71623.16;;;19.46
64600;BMP280;6553;48.412;9.514;2023-01-01T15:47:12;71624.78;;;19.48
64600;BMP280;6553;48.412;9.514;2023-01-01T15:49:38;71617.09;;;19.46
64600;BMP280;6553;48.412;9.514;2023-01-01T15:52:15;71622.63;;;19.46
64600;BMP280;6553;48.412;9.514;2023-01-01T15:54:44;71617.09;;;19.46
64600;BMP280;6553;48.412;9.514;2023-01-01T15:57:19;71612.97;;;19.39
64600;BMP280;6553;48.412;9.514;2023-01-01T15:59:46;71621.06;;;19.44
64600;BMP280;6553;48.412;9.514;2023-01-01T16:02:21;71619.88;;;19.46
64600;BMP280;6553;48.412;9.514;2023-01-01T16:04:50;71627.63;;;19.45
64600;BMP280;6553;48.412;9.514;2023-01-01T16:07:22;71618.38;;;19.42
64600;BMP280;6553;48.412;9.514;2023-01-01T16:09:50;71621.59;;;19.45
64600;BMP280;6553;48.412;9.514;2023-01-01T16:12:17;71625.94;;;19.46
64600;BMP280;6553;48.412;9.514;2023-01-01T16:14:43;71638.56;;;19.61